createdAt,value
2017-07-08T00:00:09.628Z,1002.09
2017-07-08T00:01:09.656Z,1002
2017-07-08T00:02:09.685Z,1002.05
2017-07-08T00:03:09.712Z,1002.07
2017-07-08T00:04:09.739Z,1002.11
2017-07-08T00:05:09.765Z,1002.12
2017-07-08T00:06:09.794Z,1002.14
2017-07-08T00:07:09.837Z,1002.16
2017-07-08T00:08:09.845Z,1002.15
2017-07-08T00:09:09.874Z,1002.15
2017-07-08T00:10:09.899Z,1002.17
2017-07-08T00:11:09.927Z,1002.16
2017-07-08T00:12:09.955Z,1002.15
2017-07-08T00:13:09.985Z,1002.14
2017-07-08T00:14:10.009Z,1002.13
2017-07-08T00:15:10.036Z,1002.12
2017-07-08T00:16:10.063Z,1002.12
2017-07-08T00:17:10.091Z,1002.16
2017-07-08T00:18:10.119Z,1002.14
2017-07-08T00:19:10.146Z,1002.15
2017-07-08T00:20:10.172Z,1002.19
2017-07-08T00:21:10.198Z,1002.21
2017-07-08T00:22:10.226Z,1002.25
2017-07-08T00:23:10.252Z,1002.28
2017-07-08T00:24:10.282Z,1002.31
2017-07-08T00:25:10.308Z,1002.33
2017-07-08T00:26:10.334Z,1002.35
2017-07-08T00:27:10.363Z,1002.34
2017-07-08T00:28:10.389Z,1002.36
2017-07-08T00:29:10.415Z,1002.36
2017-07-08T00:30:10.443Z,1002.36
2017-07-08T00:31:10.470Z,1002.37
2017-07-08T00:32:10.496Z,1002.34
2017-07-08T00:33:10.524Z,1002.39
2017-07-08T00:34:10.550Z,1002.37
2017-07-08T00:35:10.660Z,1002.37
2017-07-08T00:36:10.605Z,1002.38
2017-07-08T00:37:10.633Z,1002.34
2017-07-08T00:38:10.660Z,1002.37
2017-07-08T00:39:10.686Z,1002.35
2017-07-08T00:40:10.719Z,1002.41
2017-07-08T00:41:10.744Z,1002.38
2017-07-08T00:42:10.766Z,1002.39
2017-07-08T00:43:10.794Z,1002.39
2017-07-08T00:44:10.820Z,1002.39
2017-07-08T00:45:10.847Z,1002.39
2017-07-08T00:46:10.877Z,1002.36
2017-07-08T00:47:10.901Z,1002.35
2017-07-08T00:48:10.928Z,1002.32
2017-07-08T00:49:10.955Z,1002.35
2017-07-08T00:50:10.982Z,1002.31
2017-07-08T00:51:11.009Z,1002.29
2017-07-08T00:52:11.036Z,1002.25
2017-07-08T00:53:11.062Z,1002.29
2017-07-08T00:54:11.089Z,1002.27
2017-07-08T00:55:11.116Z,1002.25
2017-07-08T00:56:11.144Z,1002.24
2017-07-08T00:57:11.170Z,1002.22
2017-07-08T00:58:11.194Z,1002.23
2017-07-08T00:59:11.222Z,1002.24
2017-07-08T01:00:11.250Z,1002.25
2017-07-08T01:01:11.277Z,1002.26
2017-07-08T01:02:11.307Z,1002.27
2017-07-08T01:03:11.330Z,1002.27
2017-07-08T01:04:11.356Z,1002.3
2017-07-08T01:05:11.383Z,1002.31
2017-07-08T01:06:11.442Z,1002.32
2017-07-08T01:07:11.436Z,1002.29
2017-07-08T01:08:11.466Z,1002.3
2017-07-08T01:09:11.490Z,1002.28
2017-07-08T01:10:11.514Z,1002.28
2017-07-08T01:11:11.543Z,1002.3
2017-07-08T01:12:11.569Z,1002.31
2017-07-08T01:13:11.595Z,1002.3
2017-07-08T01:14:11.622Z,1002.28
2017-07-08T01:15:11.648Z,1002.35
2017-07-08T01:16:11.674Z,1002.3
2017-07-08T01:17:11.702Z,1002.34
2017-07-08T01:18:11.729Z,1002.28
2017-07-08T01:19:11.755Z,1002.29
2017-07-08T01:20:11.781Z,1002.28
2017-07-08T01:21:11.806Z,1002.28
2017-07-08T01:22:11.834Z,1002.28
2017-07-08T01:23:11.861Z,1002.3
2017-07-08T01:24:11.886Z,1002.27
2017-07-08T01:25:11.914Z,1002.29
2017-07-08T01:26:11.940Z,1002.29
2017-07-08T01:27:12.063Z,1002.25
2017-07-08T01:28:11.992Z,1002.24
2017-07-08T01:29:12.019Z,1002.23
2017-07-08T01:30:12.046Z,1002.2
2017-07-08T01:31:12.072Z,1002.22
2017-07-08T01:32:12.098Z,1002.21
2017-07-08T01:33:12.124Z,1002.2
2017-07-08T01:34:12.153Z,1002.19
2017-07-08T01:35:12.178Z,1002.2
2017-07-08T01:36:12.205Z,1002.19
2017-07-08T01:37:12.232Z,1002.2
2017-07-08T01:38:12.271Z,1002.22
2017-07-08T01:39:12.312Z,1002.24
2017-07-08T01:40:12.389Z,1002.21
2017-07-08T01:41:12.336Z,1002.18
2017-07-08T01:42:12.364Z,1002.23
2017-07-08T01:43:12.389Z,1002.26
2017-07-08T01:44:12.416Z,1002.26
2017-07-08T01:45:12.441Z,1002.24
2017-07-08T01:46:12.467Z,1002.29
2017-07-08T01:47:12.494Z,1002.31
2017-07-08T01:48:12.523Z,1002.35
2017-07-08T01:49:12.545Z,1002.37
2017-07-08T01:50:12.575Z,1002.37
2017-07-08T01:51:12.600Z,1002.35
2017-07-08T01:52:12.627Z,1002.36
2017-07-08T01:53:12.651Z,1002.36
2017-07-08T01:54:12.677Z,1002.34
2017-07-08T01:55:12.704Z,1002.32
2017-07-08T01:56:12.777Z,1002.35
2017-07-08T01:57:12.755Z,1002.35
2017-07-08T01:58:12.781Z,1002.35
2017-07-08T01:59:12.809Z,1002.39
2017-07-08T02:00:12.833Z,1002.38
2017-07-08T02:01:12.859Z,1002.41
2017-07-08T02:02:12.886Z,1002.43
2017-07-08T02:03:12.912Z,1002.42
2017-07-08T02:04:12.937Z,1002.46
2017-07-08T02:05:12.965Z,1002.49
2017-07-08T02:06:12.993Z,1002.49
2017-07-08T02:07:13.016Z,1002.5
2017-07-08T02:08:13.044Z,1002.54
2017-07-08T02:09:13.067Z,1002.51
2017-07-08T02:10:13.095Z,1002.54
2017-07-08T02:11:13.120Z,1002.58
2017-07-08T02:12:13.149Z,1002.56
2017-07-08T02:13:13.177Z,1002.61
2017-07-08T02:14:13.198Z,1002.6
2017-07-08T02:15:13.225Z,1002.61
2017-07-08T02:16:13.315Z,1002.57
2017-07-08T02:17:13.313Z,1002.56
2017-07-08T02:18:13.416Z,1002.57
2017-07-08T02:19:13.415Z,1002.57
2017-07-08T02:20:13.603Z,1002.56
2017-07-08T02:21:13.474Z,1002.56
2017-07-08T02:22:13.438Z,1002.56
2017-07-08T02:23:13.436Z,1002.59
2017-07-08T02:24:13.508Z,1002.6
2017-07-08T02:25:13.685Z,1002.6
2017-07-08T02:26:13.583Z,1002.57
2017-07-08T02:27:13.681Z,1002.6
2017-07-08T02:28:13.581Z,1002.61
2017-07-08T02:29:13.590Z,1002.62
2017-07-08T02:30:13.750Z,1002.63
2017-07-08T02:31:13.861Z,1002.64
2017-07-08T02:32:13.665Z,1002.61
2017-07-08T02:33:13.690Z,1002.62
2017-07-08T02:34:13.717Z,1002.62
2017-07-08T02:35:13.742Z,1002.62
2017-07-08T02:36:13.769Z,1002.66
2017-07-08T02:37:13.796Z,1002.63
2017-07-08T02:38:13.819Z,1002.62
2017-07-08T02:39:13.847Z,1002.64
2017-07-08T02:40:13.872Z,1002.64
2017-07-08T02:41:13.898Z,1002.62
2017-07-08T02:42:13.927Z,1002.69
2017-07-08T02:43:13.949Z,1002.69
2017-07-08T02:44:13.980Z,1002.66
2017-07-08T02:45:14.003Z,1002.65
2017-07-08T02:46:14.026Z,1002.64
2017-07-08T02:47:14.052Z,1002.63
2017-07-08T02:48:14.077Z,1002.67
2017-07-08T02:49:14.102Z,1002.66
2017-07-08T02:50:14.128Z,1002.66
2017-07-08T02:51:14.156Z,1002.67
2017-07-08T02:52:14.180Z,1002.67
2017-07-08T02:53:14.205Z,1002.67
2017-07-08T02:54:14.233Z,1002.67
2017-07-08T02:55:14.260Z,1002.68
2017-07-08T02:56:14.283Z,1002.66
2017-07-08T02:57:14.313Z,1002.67
2017-07-08T02:58:14.336Z,1002.63
2017-07-08T02:59:14.360Z,1002.64
2017-07-08T03:00:14.385Z,1002.65
2017-07-08T03:01:14.412Z,1002.66
2017-07-08T03:02:14.437Z,1002.62
2017-07-08T03:03:14.462Z,1002.6
2017-07-08T03:04:14.487Z,1002.58
2017-07-08T03:05:14.514Z,1002.59
2017-07-08T03:06:14.537Z,1002.64
2017-07-08T03:07:14.565Z,1002.64
2017-07-08T03:08:14.590Z,1002.64
2017-07-08T03:09:14.616Z,1002.67
2017-07-08T03:10:14.641Z,1002.68
2017-07-08T03:11:14.667Z,1002.69
2017-07-08T03:12:14.694Z,1002.68
2017-07-08T03:13:14.718Z,1002.73
2017-07-08T03:14:14.744Z,1002.72
2017-07-08T03:15:14.768Z,1002.73
2017-07-08T03:16:14.796Z,1002.74
2017-07-08T03:17:14.821Z,1002.76
2017-07-08T03:18:14.847Z,1002.73
2017-07-08T03:19:14.873Z,1002.75
2017-07-08T03:20:14.897Z,1002.75
2017-07-08T03:21:14.923Z,1002.72
2017-07-08T03:22:14.950Z,1002.72
2017-07-08T03:23:14.973Z,1002.72
2017-07-08T03:24:14.999Z,1002.7
2017-07-08T03:25:15.025Z,1002.72
2017-07-08T03:26:15.110Z,1002.74
2017-07-08T03:27:15.077Z,1002.73
2017-07-08T03:28:15.100Z,1002.77
2017-07-08T03:29:15.127Z,1002.74
2017-07-08T03:30:15.151Z,1002.75
2017-07-08T03:31:15.176Z,1002.72
2017-07-08T03:32:15.202Z,1002.78
2017-07-08T03:33:15.228Z,1002.73
2017-07-08T03:34:15.253Z,1002.75
2017-07-08T03:35:15.277Z,1002.76
2017-07-08T03:36:15.302Z,1002.76
2017-07-08T03:37:15.329Z,1002.72
2017-07-08T03:38:15.356Z,1002.78
2017-07-08T03:39:15.378Z,1002.78
2017-07-08T03:40:15.408Z,1002.77
2017-07-08T03:41:15.431Z,1002.76
2017-07-08T03:42:15.455Z,1002.77
2017-07-08T03:43:15.480Z,1002.8
2017-07-08T03:44:15.506Z,1002.8
2017-07-08T03:45:15.533Z,1002.84
2017-07-08T03:46:15.557Z,1002.86
2017-07-08T03:47:15.582Z,1002.86
2017-07-08T03:48:15.608Z,1002.88
2017-07-08T03:49:15.635Z,1002.89
2017-07-08T03:50:15.657Z,1002.85
2017-07-08T03:51:15.684Z,1002.82
2017-07-08T03:52:15.709Z,1002.87
2017-07-08T03:53:15.733Z,1002.84
2017-07-08T03:54:15.759Z,1002.82
2017-07-08T03:55:15.785Z,1002.83
2017-07-08T03:56:15.810Z,1002.83
2017-07-08T03:57:15.835Z,1002.82
2017-07-08T03:58:15.861Z,1002.83
2017-07-08T03:59:15.885Z,1002.86
2017-07-08T04:00:15.911Z,1002.88
2017-07-08T04:01:15.934Z,1002.85
2017-07-08T04:02:15.961Z,1002.9
2017-07-08T04:03:15.987Z,1002.9
2017-07-08T04:04:16.013Z,1002.93
2017-07-08T04:05:16.036Z,1002.91
2017-07-08T04:06:16.062Z,1002.94
2017-07-08T04:07:16.087Z,1002.91
2017-07-08T04:08:16.111Z,1002.87
2017-07-08T04:09:16.137Z,1002.8
2017-07-08T04:10:16.166Z,1002.89
2017-07-08T04:11:16.188Z,1002.85
2017-07-08T04:12:16.214Z,1002.85
2017-07-08T04:13:16.249Z,1002.82
2017-07-08T04:14:16.264Z,1002.82
2017-07-08T04:15:16.394Z,1002.84
2017-07-08T04:16:16.321Z,1002.86
2017-07-08T04:17:16.430Z,1002.88
2017-07-08T04:18:16.428Z,1002.88
2017-07-08T04:19:16.469Z,1002.9
2017-07-08T04:20:16.465Z,1002.9
2017-07-08T04:21:16.464Z,1002.95
2017-07-08T04:22:16.465Z,1002.93
2017-07-08T04:23:16.490Z,1002.96
2017-07-08T04:24:16.514Z,1002.92
2017-07-08T04:25:16.540Z,1002.98
2017-07-08T04:26:16.564Z,1002.97
2017-07-08T04:27:16.591Z,1002.94
2017-07-08T04:28:16.616Z,1002.95
2017-07-08T04:29:16.641Z,1002.91
2017-07-08T04:30:16.665Z,1002.94
2017-07-08T04:31:16.693Z,1002.87
2017-07-08T04:32:16.716Z,1002.95
2017-07-08T04:33:16.740Z,1002.97
2017-07-08T04:34:16.770Z,1002.98
2017-07-08T04:35:16.791Z,1002.99
2017-07-08T04:36:16.818Z,1002.99
2017-07-08T04:37:16.841Z,1003
2017-07-08T04:38:16.866Z,1002.97
2017-07-08T04:39:16.890Z,1002.94
2017-07-08T04:40:16.917Z,1002.93
2017-07-08T04:41:16.945Z,1002.92
2017-07-08T04:42:16.967Z,1002.91
2017-07-08T04:43:16.992Z,1002.93
2017-07-08T04:44:17.019Z,1002.96
2017-07-08T04:45:17.140Z,1002.93
2017-07-08T04:46:17.166Z,1002.95
2017-07-08T04:47:17.297Z,1002.95
2017-07-08T04:48:17.118Z,1002.95
2017-07-08T04:49:17.144Z,1002.94
2017-07-08T04:50:17.170Z,1002.93
2017-07-08T04:51:17.198Z,1003
2017-07-08T04:52:17.218Z,1003.04
2017-07-08T04:53:17.242Z,1003.05
2017-07-08T04:54:17.270Z,1003.06
2017-07-08T04:55:17.293Z,1003.09
2017-07-08T04:56:17.321Z,1003.07
2017-07-08T04:57:17.343Z,1003.04
2017-07-08T04:58:17.369Z,1003.02
2017-07-08T04:59:17.394Z,1002.98
2017-07-08T05:00:17.419Z,1003
2017-07-08T05:01:17.445Z,1002.94
2017-07-08T05:02:17.470Z,1003
2017-07-08T05:03:17.494Z,1002.94
2017-07-08T05:04:17.519Z,1002.92
2017-07-08T05:05:17.544Z,1002.95
2017-07-08T05:06:17.568Z,1002.94
2017-07-08T05:07:17.598Z,1002.93
2017-07-08T05:08:17.619Z,1002.91
2017-07-08T05:09:17.645Z,1002.95
2017-07-08T05:10:17.670Z,1002.98
2017-07-08T05:11:17.695Z,1002.96
2017-07-08T05:12:17.720Z,1002.96
2017-07-08T05:13:17.745Z,1002.96
2017-07-08T05:14:17.769Z,1002.96
2017-07-08T05:15:17.795Z,1002.96
2017-07-08T05:16:17.821Z,1002.98
2017-07-08T05:17:17.845Z,1002.99
2017-07-08T05:18:17.870Z,1003
2017-07-08T05:19:17.896Z,1003
2017-07-08T05:20:17.921Z,1003
2017-07-08T05:21:17.945Z,1003.02
2017-07-08T05:22:17.970Z,1002.97
2017-07-08T05:23:17.996Z,1002.99
2017-07-08T05:24:18.020Z,1003.02
2017-07-08T05:25:18.046Z,1003.01
2017-07-08T05:26:18.071Z,1003.05
2017-07-08T05:27:18.096Z,1003.03
2017-07-08T05:28:18.121Z,1003.03
2017-07-08T05:29:18.150Z,1003.05
2017-07-08T05:30:18.171Z,1003.05
2017-07-08T05:31:18.198Z,1003.07
2017-07-08T05:32:18.221Z,1003.09
2017-07-08T05:33:18.246Z,1003.06
2017-07-08T05:34:18.273Z,1003.09
2017-07-08T05:35:18.298Z,1003.08
2017-07-08T05:36:18.322Z,1003.1
2017-07-08T05:37:18.346Z,1003.12
2017-07-08T05:38:18.372Z,1003.12
2017-07-08T05:39:18.399Z,1003.07
2017-07-08T05:40:18.423Z,1003.07
2017-07-08T05:41:18.448Z,1003.05
2017-07-08T05:42:18.473Z,1003.06
2017-07-08T05:43:18.497Z,1003.06
2017-07-08T05:44:18.523Z,1003.03
2017-07-08T05:45:18.548Z,1003.02
2017-07-08T05:46:18.576Z,1003.04
2017-07-08T05:47:18.600Z,1003.05
2017-07-08T05:48:18.625Z,1003.08
2017-07-08T05:49:18.650Z,1003.06
2017-07-08T05:50:18.675Z,1003.05
2017-07-08T05:51:18.700Z,1003.02
2017-07-08T05:52:18.726Z,1002.97
2017-07-08T05:53:18.755Z,1002.99
2017-07-08T05:54:18.776Z,1003
2017-07-08T05:55:18.801Z,1003.01
2017-07-08T05:56:18.827Z,1003
2017-07-08T05:57:18.853Z,1002.98
2017-07-08T05:58:18.877Z,1002.96
2017-07-08T05:59:18.903Z,1002.96
2017-07-08T06:00:18.928Z,1002.95
2017-07-08T06:01:18.957Z,1002.92
2017-07-08T06:02:18.978Z,1002.89
2017-07-08T06:03:19.005Z,1002.86
2017-07-08T06:04:19.030Z,1002.83
2017-07-08T06:05:19.056Z,1002.89
2017-07-08T06:06:19.080Z,1002.89
2017-07-08T06:07:19.107Z,1002.89
2017-07-08T06:08:19.131Z,1002.92
2017-07-08T06:09:19.156Z,1002.94
2017-07-08T06:10:19.182Z,1002.94
2017-07-08T06:11:19.208Z,1002.9
2017-07-08T06:12:19.233Z,1002.91
2017-07-08T06:13:19.258Z,1002.93
2017-07-08T06:14:19.285Z,1002.92
2017-07-08T06:15:19.310Z,1002.93
2017-07-08T06:16:19.335Z,1002.98
2017-07-08T06:17:19.361Z,1002.97
2017-07-08T06:18:19.389Z,1002.98
2017-07-08T06:19:19.411Z,1003
2017-07-08T06:20:19.439Z,1002.99
2017-07-08T06:21:19.464Z,1003.05
2017-07-08T06:22:19.502Z,1003.05
2017-07-08T06:23:19.515Z,1003.11
2017-07-08T06:24:19.540Z,1003.11
2017-07-08T06:25:19.566Z,1003.15
2017-07-08T06:26:19.598Z,1003.12
2017-07-08T06:27:19.617Z,1003.15
2017-07-08T06:28:19.644Z,1003.12
2017-07-08T06:29:19.669Z,1003.16
2017-07-08T06:30:19.695Z,1003.17
2017-07-08T06:31:19.721Z,1003.2
2017-07-08T06:32:19.745Z,1003.21
2017-07-08T06:33:19.773Z,1003.23
2017-07-08T06:34:19.797Z,1003.2
2017-07-08T06:35:19.824Z,1003.2
2017-07-08T06:36:19.850Z,1003.26
2017-07-08T06:37:19.876Z,1003.25
2017-07-08T06:38:19.901Z,1003.32
2017-07-08T06:39:19.926Z,1003.3
2017-07-08T06:40:19.955Z,1003.37
2017-07-08T06:41:19.978Z,1003.36
2017-07-08T06:42:20.003Z,1003.35
2017-07-08T06:43:20.030Z,1003.35
2017-07-08T06:44:20.056Z,1003.34
2017-07-08T06:45:20.082Z,1003.37
2017-07-08T06:46:20.109Z,1003.44
2017-07-08T06:47:20.134Z,1003.44
2017-07-08T06:48:20.160Z,1003.47
2017-07-08T06:49:20.185Z,1003.47
2017-07-08T06:50:20.212Z,1003.5
2017-07-08T06:51:20.239Z,1003.47
2017-07-08T06:52:20.264Z,1003.53
2017-07-08T06:53:20.290Z,1003.53
2017-07-08T06:54:20.316Z,1003.52
2017-07-08T06:55:20.343Z,1003.57
2017-07-08T06:56:20.366Z,1003.6
2017-07-08T06:57:20.497Z,1003.58
2017-07-08T06:58:20.420Z,1003.57
2017-07-08T06:59:20.447Z,1003.57
2017-07-08T07:00:20.470Z,1003.56
2017-07-08T07:01:20.498Z,1003.56
2017-07-08T07:02:20.525Z,1003.56
2017-07-08T07:03:20.548Z,1003.55
2017-07-08T07:04:20.576Z,1003.55
2017-07-08T07:05:20.602Z,1003.53
2017-07-08T07:06:20.628Z,1003.58
2017-07-08T07:07:20.655Z,1003.55
2017-07-08T07:08:20.681Z,1003.55
2017-07-08T07:09:20.708Z,1003.54
2017-07-08T07:10:20.737Z,1003.54
2017-07-08T07:11:20.760Z,1003.56
2017-07-08T07:12:20.786Z,1003.54
2017-07-08T07:13:20.812Z,1003.58
2017-07-08T07:14:20.888Z,1003.59
2017-07-08T07:15:20.869Z,1003.61
2017-07-08T07:16:20.891Z,1003.61
2017-07-08T07:17:20.918Z,1003.6
2017-07-08T07:18:20.943Z,1003.6
2017-07-08T07:19:20.971Z,1003.65
2017-07-08T07:20:20.997Z,1003.67
2017-07-08T07:21:21.024Z,1003.68
2017-07-08T07:22:21.050Z,1003.68
2017-07-08T07:23:21.078Z,1003.72
2017-07-08T07:24:21.104Z,1003.72
2017-07-08T07:25:21.130Z,1003.68
2017-07-08T07:26:21.156Z,1003.68
2017-07-08T07:27:21.182Z,1003.69
2017-07-08T07:28:21.212Z,1003.69
2017-07-08T07:29:21.234Z,1003.67
2017-07-08T07:30:21.264Z,1003.68
2017-07-08T07:31:21.288Z,1003.7
2017-07-08T07:32:21.315Z,1003.69
2017-07-08T07:33:21.343Z,1003.68
2017-07-08T07:34:21.368Z,1003.71
2017-07-08T07:35:21.397Z,1003.73
2017-07-08T07:36:21.421Z,1003.72
2017-07-08T07:37:21.449Z,1003.73
2017-07-08T07:38:21.478Z,1003.72
2017-07-08T07:39:21.503Z,1003.73
2017-07-08T07:40:21.527Z,1003.75
2017-07-08T07:41:21.555Z,1003.79
2017-07-08T07:42:21.583Z,1003.77
2017-07-08T07:43:21.609Z,1003.82
2017-07-08T07:44:21.636Z,1003.83
2017-07-08T07:45:21.673Z,1003.79
2017-07-08T07:46:21.691Z,1003.8
2017-07-08T07:47:21.716Z,1003.8
2017-07-08T07:48:21.744Z,1003.79
2017-07-08T07:49:21.773Z,1003.79
2017-07-08T07:50:21.798Z,1003.82
2017-07-08T07:51:21.829Z,1003.8
2017-07-08T07:52:21.853Z,1003.82
2017-07-08T07:53:21.880Z,1003.86
2017-07-08T07:54:21.907Z,1003.83
2017-07-08T07:55:21.935Z,1003.87
2017-07-08T07:56:21.965Z,1003.89
2017-07-08T07:57:21.991Z,1003.92
2017-07-08T07:58:22.016Z,1003.87
2017-07-08T07:59:22.044Z,1003.9
2017-07-08T08:00:22.072Z,1003.86
2017-07-08T08:01:22.098Z,1003.86
2017-07-08T08:02:22.125Z,1003.83
2017-07-08T08:03:22.219Z,1003.92
2017-07-08T08:04:22.181Z,1003.9
2017-07-08T08:05:22.209Z,1003.93
2017-07-08T08:06:22.236Z,1003.93
2017-07-08T08:07:22.265Z,1003.93
2017-07-08T08:08:22.293Z,1003.97
2017-07-08T08:09:22.319Z,1003.96
2017-07-08T08:10:22.348Z,1003.94
2017-07-08T08:11:22.375Z,1003.93
2017-07-08T08:12:22.403Z,1003.97
2017-07-08T08:13:22.430Z,1003.91
2017-07-08T08:14:22.458Z,1003.89
2017-07-08T08:15:22.485Z,1003.9
2017-07-08T08:16:22.512Z,1003.93
2017-07-08T08:17:22.541Z,1003.97
2017-07-08T08:18:22.569Z,1003.95
2017-07-08T08:19:22.596Z,1003.97
2017-07-08T08:20:22.624Z,1004
2017-07-08T08:21:22.652Z,1003.94
2017-07-08T08:22:22.681Z,1003.94
2017-07-08T08:23:22.708Z,1003.96
2017-07-08T08:24:22.736Z,1003.93
2017-07-08T08:25:22.763Z,1003.98
2017-07-08T08:26:22.792Z,1003.96
2017-07-08T08:27:22.819Z,1004.01
2017-07-08T08:28:22.850Z,1003.98
2017-07-08T08:29:22.876Z,1003.97
2017-07-08T08:30:22.904Z,1003.96
2017-07-08T08:31:22.937Z,1003.98
2017-07-08T08:32:22.961Z,1003.95
2017-07-08T08:33:22.988Z,1003.95
2017-07-08T08:34:23.017Z,1003.96
2017-07-08T08:35:23.048Z,1003.99
2017-07-08T08:36:23.073Z,1003.97
2017-07-08T08:37:23.102Z,1003.95
2017-07-08T08:38:23.130Z,1003.96
2017-07-08T08:39:23.158Z,1003.93
2017-07-08T08:40:23.186Z,1003.96
2017-07-08T08:41:23.215Z,1003.95
2017-07-08T08:42:23.242Z,1003.9
2017-07-08T08:43:23.271Z,1003.88
2017-07-08T08:44:23.299Z,1003.88
2017-07-08T08:45:23.329Z,1003.9
2017-07-08T08:46:23.356Z,1003.85
2017-07-08T08:47:23.385Z,1003.83
2017-07-08T08:48:23.413Z,1003.89
2017-07-08T08:49:23.442Z,1003.85
2017-07-08T08:50:23.469Z,1003.83
2017-07-08T08:51:23.499Z,1003.85
2017-07-08T08:52:23.528Z,1003.86
2017-07-08T08:53:23.555Z,1003.89
2017-07-08T08:54:23.584Z,1003.88
2017-07-08T08:55:23.613Z,1003.87
2017-07-08T08:56:23.643Z,1003.86
2017-07-08T08:57:23.671Z,1003.86
2017-07-08T08:58:23.700Z,1003.87
2017-07-08T08:59:23.729Z,1003.83
2017-07-08T09:00:23.758Z,1003.84
2017-07-08T09:01:23.785Z,1003.83
2017-07-08T09:02:23.816Z,1003.81
2017-07-08T09:03:23.844Z,1003.87
2017-07-08T09:04:23.872Z,1003.86
2017-07-08T09:05:23.900Z,1003.92
2017-07-08T09:06:23.931Z,1003.94
2017-07-08T09:07:23.958Z,1003.96
2017-07-08T09:08:23.987Z,1003.95
2017-07-08T09:09:24.017Z,1003.98
2017-07-08T09:10:24.047Z,1003.98
2017-07-08T09:11:24.074Z,1003.96
2017-07-08T09:12:24.103Z,1003.99
2017-07-08T09:13:24.181Z,1004.05
2017-07-08T09:14:24.162Z,1004.06
2017-07-08T09:15:24.190Z,1004.11
2017-07-08T09:16:24.221Z,1004.08
2017-07-08T09:17:24.248Z,1004.06
2017-07-08T09:18:24.277Z,1004.09
2017-07-08T09:19:24.306Z,1004.07
2017-07-08T09:20:24.336Z,1004.04
2017-07-08T09:21:24.366Z,1003.98
2017-07-08T09:22:24.394Z,1004.04
2017-07-08T09:23:24.423Z,1004.01
2017-07-08T09:24:24.453Z,1004.01
2017-07-08T09:25:24.482Z,1004.01
2017-07-08T09:26:24.510Z,1003.97
2017-07-08T09:27:24.540Z,1004.02
2017-07-08T09:28:24.569Z,1004
2017-07-08T09:29:24.599Z,1004.03
2017-07-08T09:30:24.629Z,1004.03
2017-07-08T09:31:24.659Z,1004.04
2017-07-08T09:32:24.688Z,1004.11
2017-07-08T09:33:24.718Z,1004.09
2017-07-08T09:34:24.746Z,1004.06
2017-07-08T09:35:24.776Z,1004.03
2017-07-08T09:36:24.806Z,1004.12
2017-07-08T09:37:24.835Z,1004.1
2017-07-08T09:38:24.864Z,1004.12
2017-07-08T09:39:24.894Z,1004.18
2017-07-08T09:40:24.923Z,1004.15
2017-07-08T09:41:24.953Z,1004.14
2017-07-08T09:42:24.983Z,1004.13
2017-07-08T09:43:25.014Z,1004.1
2017-07-08T09:44:25.042Z,1004.13
2017-07-08T09:45:25.072Z,1004.13
2017-07-08T09:46:25.102Z,1004.13
2017-07-08T09:47:25.132Z,1004.16
2017-07-08T09:48:25.160Z,1004.18
2017-07-08T09:49:25.190Z,1004.19
2017-07-08T09:50:25.221Z,1004.19
2017-07-08T09:51:25.250Z,1004.14
2017-07-08T09:52:25.280Z,1004.12
2017-07-08T09:53:25.310Z,1004.11
2017-07-08T09:54:25.340Z,1004.11
2017-07-08T09:55:25.371Z,1004.11
2017-07-08T09:56:25.400Z,1004.04
2017-07-08T09:57:25.431Z,1004.09
2017-07-08T09:58:25.462Z,1004.06
2017-07-08T09:59:25.490Z,1004.09
2017-07-08T10:00:25.522Z,1004.09
2017-07-08T10:01:25.553Z,1004.09
2017-07-08T10:02:25.582Z,1004.1
2017-07-08T10:03:25.613Z,1004.08
2017-07-08T10:04:25.643Z,1004.08
2017-07-08T10:05:25.675Z,1004.1
2017-07-08T10:06:25.703Z,1004.18
2017-07-08T10:07:25.733Z,1004.16
2017-07-08T10:08:25.764Z,1004.21
2017-07-08T10:09:25.794Z,1004.25
2017-07-08T10:10:25.825Z,1004.23
2017-07-08T10:11:25.859Z,1004.22
2017-07-08T10:12:25.886Z,1004.25
2017-07-08T10:13:25.915Z,1004.26
2017-07-08T10:14:25.946Z,1004.3
2017-07-08T10:15:25.976Z,1004.28
2017-07-08T10:16:26.007Z,1004.27
2017-07-08T10:17:26.037Z,1004.26
2017-07-08T10:18:26.069Z,1004.26
2017-07-08T10:19:26.099Z,1004.26
2017-07-08T10:20:26.130Z,1004.25
2017-07-08T10:21:26.159Z,1004.23
2017-07-08T10:22:26.189Z,1004.25
2017-07-08T10:23:26.219Z,1004.24
2017-07-08T10:24:26.250Z,1004.24
2017-07-08T10:25:26.281Z,1004.24
2017-07-08T10:26:26.311Z,1004.3
2017-07-08T10:27:26.342Z,1004.29
2017-07-08T10:28:26.371Z,1004.31
2017-07-08T10:29:26.401Z,1004.3
2017-07-08T10:30:26.432Z,1004.27
2017-07-08T10:31:26.463Z,1004.24
2017-07-08T10:32:26.493Z,1004.17
2017-07-08T10:33:26.524Z,1004.14
2017-07-08T10:34:26.557Z,1004.09
2017-07-08T10:35:26.584Z,1004.07
2017-07-08T10:36:26.615Z,1004.05
2017-07-08T10:37:26.645Z,1004.08
2017-07-08T10:38:26.680Z,1004.09
2017-07-08T10:39:26.707Z,1004.14
2017-07-08T10:40:26.737Z,1004.2
2017-07-08T10:41:26.766Z,1004.19
2017-07-08T10:42:26.796Z,1004.19
2017-07-08T10:43:26.826Z,1004.24
2017-07-08T10:44:26.856Z,1004.24
2017-07-08T10:45:26.887Z,1004.25
2017-07-08T10:46:26.916Z,1004.28
2017-07-08T10:47:26.945Z,1004.29
2017-07-08T10:48:26.977Z,1004.25
2017-07-08T10:49:27.006Z,1004.21
2017-07-08T10:50:27.037Z,1004.22
2017-07-08T10:51:27.068Z,1004.22
2017-07-08T10:52:27.098Z,1004.22
2017-07-08T10:53:27.127Z,1004.19
2017-07-08T10:54:27.156Z,1004.18
2017-07-08T10:55:27.188Z,1004.16
2017-07-08T10:56:27.218Z,1004.18
2017-07-08T10:57:27.248Z,1004.17
2017-07-08T10:58:27.278Z,1004.19
2017-07-08T10:59:27.363Z,1004.18
2017-07-08T11:00:27.337Z,1004.19
2017-07-08T11:01:27.368Z,1004.18
2017-07-08T11:02:27.398Z,1004.17
2017-07-08T11:03:27.428Z,1004.18
2017-07-08T11:04:27.458Z,1004.2
2017-07-08T11:05:27.489Z,1004.2
2017-07-08T11:06:27.520Z,1004.19
2017-07-08T11:07:27.550Z,1004.16
2017-07-08T11:08:27.579Z,1004.14
2017-07-08T11:09:27.610Z,1004.09
2017-07-08T11:10:27.639Z,1004.06
2017-07-08T11:11:27.670Z,1004.09
2017-07-08T11:12:27.699Z,1004.1
2017-07-08T11:13:27.729Z,1004.11
2017-07-08T11:14:27.760Z,1004.13
2017-07-08T11:15:27.788Z,1004.15
2017-07-08T11:16:27.819Z,1004.15
2017-07-08T11:17:27.850Z,1004.17
2017-07-08T11:18:27.878Z,1004.18
2017-07-08T11:19:27.991Z,1004.15
2017-07-08T11:20:28.031Z,1004.14
2017-07-08T11:21:27.971Z,1004.17
2017-07-08T11:22:27.999Z,1004.14
2017-07-08T11:23:28.029Z,1004.14
2017-07-08T11:24:28.058Z,1004.1
2017-07-08T11:25:28.091Z,1004.09
2017-07-08T11:26:28.118Z,1004.14
2017-07-08T11:27:28.150Z,1004.07
2017-07-08T11:28:28.178Z,1004.1
2017-07-08T11:29:28.208Z,1004.08
2017-07-08T11:30:28.237Z,1004.09
2017-07-08T11:31:28.269Z,1004.09
2017-07-08T11:32:28.298Z,1004.05
2017-07-08T11:33:28.333Z,1004.04
2017-07-08T11:34:28.358Z,1004.04
2017-07-08T11:35:28.389Z,1004.02
2017-07-08T11:36:28.419Z,1004
2017-07-08T11:37:28.449Z,1003.99
2017-07-08T11:38:28.480Z,1003.99
2017-07-08T11:39:28.510Z,1004.01
2017-07-08T11:40:28.542Z,1004.03
2017-07-08T11:41:28.571Z,1004.02
2017-07-08T11:42:28.603Z,1004
2017-07-08T11:43:28.632Z,1003.98
2017-07-08T11:44:28.664Z,1004.01
2017-07-08T11:45:28.693Z,1004.02
2017-07-08T11:46:28.727Z,1004
2017-07-08T11:47:28.756Z,1004.01
2017-07-08T11:48:28.786Z,1004.01
2017-07-08T11:49:28.817Z,1003.97
2017-07-08T11:50:28.849Z,1003.97
2017-07-08T11:51:28.880Z,1004
2017-07-08T11:52:28.915Z,1003.97
2017-07-08T11:53:28.942Z,1003.93
2017-07-08T11:54:28.974Z,1003.92
2017-07-08T11:55:29.005Z,1003.87
2017-07-08T11:56:29.034Z,1003.87
2017-07-08T11:57:29.067Z,1003.87
2017-07-08T11:58:29.098Z,1003.87
2017-07-08T11:59:29.129Z,1003.87
2017-07-08T12:00:29.161Z,1003.88
2017-07-08T12:01:29.191Z,1003.83
2017-07-08T12:02:29.223Z,1003.8
2017-07-08T12:03:29.255Z,1003.81
2017-07-08T12:04:29.289Z,1003.86
2017-07-08T12:05:29.318Z,1003.84
2017-07-08T12:06:29.349Z,1003.83
2017-07-08T12:07:29.381Z,1003.85
2017-07-08T12:08:29.412Z,1003.86
2017-07-08T12:09:29.446Z,1003.88